Time;durP1;ratioP1;P1;durP2;ratioP2;P2;SDS_P1;SDS_P2;PMS_P1;PMS_P2;Temp;Humidity;BMP_temperature;BMP_pressure;BME280_temperature;BME280_humidity;BME280_pressure;Samples;Min_cycle;Max_cycle;Signal;HPM_P1;HPM_P2
2022/11/30 00:01:13;;;;;;;59.42;30.88;;;;;;;1.04;85.20;100070.98;1677918;84;21493;-49
2022/11/30 00:03:39;;;;;;;65.00;32.28;;;;;;;1.07;85.21;100063.17;1677853;84;21477;-57
2022/11/30 00:06:08;;;;;;;57.95;30.48;;;;;;;1.06;85.21;100077.02;1677808;84;21501;-48
2022/11/30 00:08:34;;;;;;;61.48;32.17;;;;;;;1.03;85.25;100069.25;1677737;85;21047;-51
2022/11/30 00:11:12;;;;;;;58.52;30.90;;;;;;;1.03;85.52;100074.87;1677799;84;21023;-54
2022/11/30 00:13:39;;;;;;;63.00;33.40;;;;;;;1.08;85.30;100084.34;1677757;85;20992;-52
2022/11/30 00:16:06;;;;;;;58.05;31.42;;;;;;;1.06;85.01;100079.61;1676901;84;21556;-49
2022/11/30 00:18:32;;;;;;;64.25;30.60;;;;;;;1.00;85.05;100079.64;1678020;84;21020;-49
2022/11/30 00:21:00;;;;;;;57.80;30.12;;;;;;;1.03;85.38;100077.02;1678011;85;21470;-53
2022/11/30 00:23:33;;;;;;;54.75;30.50;;;;;;;1.02;85.24;100075.72;1677960;84;21027;-52
2022/11/30 00:26:04;;;;;;;67.80;32.70;;;;;;;1.06;85.52;100080.90;1677600;85;21501;-54
2022/11/30 00:28:32;;;;;;;67.20;34.83;;;;;;;1.12;85.35;100079.57;1677861;84;21024;-48
2022/11/30 00:31:01;;;;;;;62.05;31.05;;;;;;;1.13;85.14;100077.86;1677958;84;21031;-47
2022/11/30 00:33:28;;;;;;;57.17;32.40;;;;;;;1.07;84.97;100073.54;1677871;85;21071;-43
2022/11/30 00:35:59;;;;;;;56.63;29.42;;;;;;;1.11;85.08;100077.86;1678019;85;20980;-40
2022/11/30 00:38:26;;;;;;;44.85;26.02;;;;;;;1.12;85.10;100076.12;1677890;84;20996;-44
2022/11/30 00:40:53;;;;;;;52.35;28.05;;;;;;;1.13;84.78;100081.75;1677978;84;21439;-44
2022/11/30 00:43:18;;;;;;;48.55;27.48;;;;;;;1.08;84.75;100077.87;1677912;84;21023;-54
2022/11/30 00:45:45;;;;;;;49.40;26.90;;;;;;;1.13;84.77;100081.31;1677879;85;21073;-44
2022/11/30 00:48:10;;;;;;;43.95;24.90;;;;;;;1.14;84.61;100085.60;1682238;84;21090;-41
2022/11/30 00:50:36;;;;;;;51.63;28.07;;;;;;;1.09;84.55;100090.38;1687961;85;21063;-52
2022/11/30 00:53:02;;;;;;;45.95;25.72;;;;;;;1.07;84.45;100087.78;1658545;85;21019;-55
2022/11/30 00:55:28;;;;;;;50.70;26.60;;;;;;;0.99;84.80;100086.97;1687893;84;20995;-54
2022/11/30 00:57:53;;;;;;;50.10;26.05;;;;;;;0.93;84.68;100085.71;1687942;84;21015;-49
2022/11/30 01:00:19;;;;;;;48.68;26.75;;;;;;;0.93;85.03;100081.83;1687981;84;20987;-55
2022/11/30 01:02:45;;;;;;;46.88;24.87;;;;;;;0.94;85.21;100082.23;1687922;85;21055;-55
2022/11/30 01:05:11;;;;;;;47.75;26.07;;;;;;;0.73;85.47;100090.94;1687976;84;21022;-53
2022/11/30 01:07:36;;;;;;;50.70;27.65;;;;;;;0.72;85.61;100099.56;1687943;84;20985;-58
2022/11/30 01:10:03;;;;;;;54.73;29.15;;;;;;;0.74;85.80;100096.09;1687997;85;21015;-59
2022/11/30 01:12:28;;;;;;;53.13;28.92;;;;;;;0.73;86.05;100102.16;1687964;84;21066;-51
2022/11/30 01:14:54;;;;;;;48.40;27.22;;;;;;;0.71;86.23;100100.00;1687964;84;21048;-49
2022/11/30 01:17:20;;;;;;;51.48;29.12;;;;;;;0.72;86.46;100095.23;1687947;84;21011;-40
2022/11/30 01:19:46;;;;;;;50.25;27.58;;;;;;;0.80;86.40;100096.95;1687943;84;20988;-45
2022/11/30 01:22:11;;;;;;;48.50;27.30;;;;;;;0.79;86.22;100103.86;1687944;84;21059;-49
2022/11/30 01:24:37;;;;;;;52.20;28.57;;;;;;;0.67;86.53;100090.50;1687888;84;21023;-42
2022/11/30 01:27:03;;;;;;;48.13;26.02;;;;;;;0.72;86.81;100096.53;1687899;84;20991;-50
2022/11/30 01:29:29;;;;;;;50.78;26.35;;;;;;;0.60;87.11;100100.88;1688022;84;20995;-49
2022/11/30 01:31:54;;;;;;;51.18;25.95;;;;;;;0.60;87.32;100105.64;1687926;84;21031;-42
2022/11/30 01:34:20;;;;;;;50.17;27.45;;;;;;;0.60;87.32;100105.64;1688066;84;21019;-50
2022/11/30 01:36:47;;;;;;;47.70;26.25;;;;;;;0.60;87.17;100101.76;1687918;85;20995;-45
2022/11/30 01:39:13;;;;;;;51.33;27.07;;;;;;;0.55;87.35;100106.08;1688125;84;21027;-49
2022/11/30 01:41:39;;;;;;;50.35;26.60;;;;;;;0.53;87.68;100096.16;1688016;84;21544;-48
2022/11/30 01:44:16;;;;;;;48.90;28.00;;;;;;;0.53;87.81;100101.34;1687965;85;21770;-59
2022/11/30 01:46:59;;;;;;;53.75;28.52;;;;;;;0.54;87.85;100096.57;1688057;84;21063;-49
2022/11/30 01:49:31;;;;;;;53.87;27.22;;;;;;;0.59;87.99;100100.46;1687142;85;21039;-50
2022/11/30 01:52:14;;;;;;;58.48;29.18;;;;;;;0.57;87.94;100100.45;1687347;85;21027;-47
2022/11/30 01:54:48;;;;;;;62.05;29.85;;;;;;;0.59;87.87;100100.02;1687688;85;21031;-51
2022/11/30 01:57:30;;;;;;;56.42;29.80;;;;;;;0.60;87.96;100097.87;1687949;84;21028;-49
2022/11/30 02:00:00;;;;;;;52.73;29.63;;;;;;;0.60;88.00;100091.41;1687887;85;21492;-54
2022/11/30 02:02:47;;;;;;;60.08;29.07;;;;;;;0.63;88.19;100096.55;1687985;84;21031;-49
2022/11/30 02:05:16;;;;;;;60.90;29.20;;;;;;;0.72;88.00;100103.45;1688023;84;21463;-50
2022/11/30 02:07:42;;;;;;;58.78;28.83;;;;;;;0.70;87.86;100100.86;1687878;84;21489;-41
2022/11/30 02:10:17;;;;;;;55.90;29.63;;;;;;;0.70;87.62;100103.88;1687942;85;21019;-45
2022/11/30 02:13:11;;;;;;;60.05;29.82;;;;;;;0.67;87.70;100111.20;1687882;84;21054;-38
2022/11/30 02:15:46;;;;;;;55.48;29.25;;;;;;;0.63;88.04;100116.41;1688005;84;21068;-58
2022/11/30 02:18:20;;;;;;;57.65;29.18;;;;;;;0.64;88.26;100111.23;1687437;85;21015;-52
2022/11/30 02:21:03;;;;;;;54.25;27.70;;;;;;;0.62;88.23;100113.38;1687913;84;21528;-50
2022/11/30 02:23:40;;;;;;;53.65;27.45;;;;;;;0.58;88.41;100118.98;1687859;85;21011;-45
2022/11/30 02:26:49;;;;;;;52.58;26.95;;;;;;;0.46;88.31;100118.59;1688043;85;21019;-40
2022/11/30 02:29:32;;;;;;;53.13;27.35;;;;;;;0.54;88.46;100114.25;1687838;84;21066;-46
2022/11/30 02:32:13;;;;;;;54.83;28.62;;;;;;;0.52;88.53;100115.13;1687953;84;21027;-41
2022/11/30 02:34:41;;;;;;;59.75;27.55;;;;;;;0.56;88.74;100112.95;1687837;84;21059;-47
2022/11/30 02:37:10;;;;;;;56.50;28.67;;;;;;;0.55;88.49;100107.37;1687892;84;21081;-46
2022/11/30 02:39:36;;;;;;;58.25;29.67;;;;;;;0.54;88.36;100113.39;1687819;84;21023;-51
2022/11/30 02:42:02;;;;;;;57.03;28.62;;;;;;;0.53;88.58;100110.39;1708094;80;21493;-49
2022/11/30 02:44:28;;;;;;;57.35;29.05;;;;;;;0.60;88.75;100110.82;1744665;81;20986;-57
2022/11/30 02:47:05;;;;;;;57.40;29.10;;;;;;;0.61;88.75;100107.34;1744590;82;21050;-45
2022/11/30 02:49:45;;;;;;;63.30;30.05;;;;;;;0.69;88.79;100110.80;1744567;81;21128;-52
2022/11/30 02:52:13;;;;;;;62.27;29.30;;;;;;;0.71;88.45;100110.77;1744609;81;20991;-52
2022/11/30 02:54:39;;;;;;;63.08;30.85;;;;;;;0.75;88.40;100115.95;1744565;81;20983;-45
2022/11/30 02:57:06;;;;;;;64.22;29.52;;;;;;;0.70;88.75;100116.39;1744596;81;21003;-44
2022/11/30 02:59:32;;;;;;;62.05;29.27;;;;;;;0.75;88.50;100117.69;1744997;81;21523;-56
2022/11/30 03:01:58;;;;;;;53.73;26.40;;;;;;;0.75;88.53;100115.10;1744624;81;21026;-57
2022/11/30 03:04:24;;;;;;;58.78;28.10;;;;;;;0.80;88.08;100117.66;1744631;81;20991;-57
2022/11/30 03:06:49;;;;;;;57.03;29.72;;;;;;;0.73;88.12;100117.69;1744581;81;21043;-54
2022/11/30 03:09:15;;;;;;;61.10;29.40;;;;;;;0.72;87.72;100125.01;1744537;81;21031;-53
2022/11/30 03:11:42;;;;;;;63.05;28.65;;;;;;;0.70;88.18;100126.74;1744238;82;21584;-55
2022/11/30 03:14:08;;;;;;;75.85;37.60;;;;;;;0.72;88.26;100128.04;1744651;82;20999;-41
2022/11/30 03:16:33;;;;;;;73.42;32.70;;;;;;;0.73;88.27;100136.25;1744673;81;20999;-51
2022/11/30 03:18:59;;;;;;;72.22;33.40;;;;;;;0.74;88.20;100128.89;1744657;82;20992;-55
2022/11/30 03:21:25;;;;;;;68.42;31.55;;;;;;;0.69;88.23;100134.09;1744770;81;20984;-45
2022/11/30 03:23:51;;;;;;;80.75;36.95;;;;;;;0.70;88.30;100137.09;1744598;81;20985;-45
2022/11/30 03:26:16;;;;;;;88.12;38.85;;;;;;;0.67;88.63;100135.80;1744659;82;20996;-48
2022/11/30 03:28:42;;;;;;;100.05;42.93;;;;;;;0.69;88.52;100140.98;1744693;82;20992;-49
2022/11/30 03:31:12;;;;;;;102.05;44.83;;;;;;;0.73;88.53;100134.95;1744709;81;21469;-53
2022/11/30 03:33:41;;;;;;;88.07;40.60;;;;;;;0.67;88.83;100138.39;1744558;81;20983;-53
2022/11/30 03:36:10;;;;;;;69.62;32.65;;;;;;;0.67;88.97;100139.68;1744572;81;20991;-55
2022/11/30 03:38:36;;;;;;;60.23;30.55;;;;;;;0.74;88.76;100137.52;1744631;82;21599;-43
2022/11/30 03:41:05;;;;;;;66.33;30.90;;;;;;;0.74;88.61;100140.11;1744639;81;20972;-44
2022/11/30 03:43:32;;;;;;;62.45;32.42;;;;;;;0.75;88.61;100145.73;1744426;81;20988;-42
2022/11/30 03:45:58;;;;;;;67.78;30.57;;;;;;;0.75;88.65;100142.28;1744678;82;20984;-48
2022/11/30 03:48:25;;;;;;;62.10;29.55;;;;;;;0.78;88.56;100139.67;1744682;81;21473;-53
2022/11/30 03:50:51;;;;;;;55.80;26.70;;;;;;;0.73;88.54;100143.58;1744808;82;20991;-43
2022/11/30 03:53:19;;;;;;;53.23;27.27;;;;;;;0.59;88.44;100146.61;1744795;81;20999;-48
2022/11/30 03:55:48;;;;;;;52.75;27.60;;;;;;;0.57;88.03;100147.91;1744778;82;21572;-48
2022/11/30 03:58:13;;;;;;;62.98;26.10;;;;;;;0.43;88.31;100144.90;1732287;82;21003;-49
2022/11/30 04:00:39;;;;;;;60.30;28.60;;;;;;;0.48;88.35;100152.23;1744795;81;20964;-51
2022/11/30 04:03:05;;;;;;;57.25;27.27;;;;;;;0.42;88.52;100147.04;1744766;82;21039;-53
2022/11/30 04:05:31;;;;;;;56.37;27.55;;;;;;;0.43;88.84;100150.07;1744749;81;21143;-54
2022/11/30 04:07:57;;;;;;;59.15;27.82;;;;;;;0.36;89.10;100142.32;1744790;81;20948;-54
2022/11/30 04:10:23;;;;;;;57.65;28.55;;;;;;;0.43;89.00;100143.16;1744911;81;21516;-51
2022/11/30 04:12:49;;;;;;;54.40;28.12;;;;;;;0.44;89.02;100146.20;1744839;81;21472;-45
2022/11/30 04:15:15;;;;;;;51.45;26.25;;;;;;;0.44;89.02;100146.20;1744837;81;20995;-47
2022/11/30 04:17:40;;;;;;;53.33;27.62;;;;;;;0.52;88.75;100146.19;1744832;81;21007;-57
2022/11/30 04:20:07;;;;;;;53.05;27.48;;;;;;;0.56;88.53;100151.38;1744691;82;20988;-64
2022/11/30 04:22:33;;;;;;;53.48;27.85;;;;;;;0.57;88.39;100151.78;1744744;81;21540;-45
2022/11/30 04:24:59;;;;;;;56.33;26.95;;;;;;;0.48;88.27;100149.64;1744772;81;21035;-43
2022/11/30 04:27:25;;;;;;;62.10;29.77;;;;;;;0.48;88.28;100143.17;1744732;82;20988;-45
2022/11/30 04:29:51;;;;;;;51.80;26.27;;;;;;;0.49;88.40;100154.83;1732135;82;20984;-47
2022/11/30 04:32:16;;;;;;;51.37;26.12;;;;;;;0.48;88.31;100154.38;1744757;82;20963;-54
2022/11/30 04:34:42;;;;;;;44.67;24.07;;;;;;;0.51;88.20;100153.50;1744743;81;20983;-49
2022/11/30 04:37:08;;;;;;;49.80;25.80;;;;;;;0.43;87.98;100153.95;1744775;82;20992;-50
2022/11/30 04:39:34;;;;;;;44.75;23.60;;;;;;;0.37;87.94;100153.09;1744783;81;21031;-56
2022/11/30 04:42:00;;;;;;;47.27;25.48;;;;;;;0.31;88.09;100150.51;1744734;81;21059;-49
2022/11/30 04:44:26;;;;;;;46.63;25.43;;;;;;;0.19;88.42;100155.67;1744741;81;20983;-51
2022/11/30 04:46:52;;;;;;;51.50;27.50;;;;;;;0.34;88.56;100156.95;1744752;81;20964;-57
2022/11/30 04:49:17;;;;;;;54.13;27.80;;;;;;;0.33;88.71;100149.22;1744932;81;20999;-46
2022/11/30 04:51:43;;;;;;;51.48;27.05;;;;;;;0.38;88.68;100146.17;1744895;81;20964;-48
2022/11/30 04:54:09;;;;;;;50.88;26.70;;;;;;;0.44;88.67;100150.48;1744763;81;21488;-52
2022/11/30 04:56:36;;;;;;;58.33;26.70;;;;;;;0.49;88.50;100156.53;1744846;81;21535;-44
2022/11/30 04:59:01;;;;;;;52.75;27.58;;;;;;;0.52;88.41;100160.42;1744884;81;21386;-54
2022/11/30 05:01:27;;;;;;;52.10;27.00;;;;;;;0.53;88.08;100164.75;1744790;81;20988;-56
2022/11/30 05:03:53;;;;;;;54.18;28.73;;;;;;;0.50;88.07;100163.44;1744686;81;21045;-49
2022/11/30 05:06:19;;;;;;;45.17;25.37;;;;;;;0.48;88.34;100160.00;1744766;81;20968;-48
2022/11/30 05:08:45;;;;;;;45.60;24.72;;;;;;;0.53;88.11;100167.33;1744675;82;21031;-49
2022/11/30 05:11:10;;;;;;;41.73;23.67;;;;;;;0.46;87.69;100174.22;1744723;81;21015;-54
2022/11/30 05:13:37;;;;;;;44.42;23.80;;;;;;;0.45;87.36;100171.63;1744744;81;21015;-46
2022/11/30 05:16:03;;;;;;;42.80;25.15;;;;;;;0.47;87.44;100168.61;1744865;81;21011;-48
2022/11/30 05:18:30;;;;;;;41.60;24.37;;;;;;;0.47;87.37;100168.61;1744707;81;21461;-55
2022/11/30 05:20:56;;;;;;;41.10;22.10;;;;;;;0.47;87.42;100165.58;1744919;82;20987;-52
2022/11/30 05:23:22;;;;;;;42.03;23.85;;;;;;;0.34;87.39;100162.57;1744704;81;20960;-54
2022/11/30 05:25:49;;;;;;;47.17;24.63;;;;;;;0.42;87.27;100166.45;1744734;81;20960;-51
2022/11/30 05:28:15;;;;;;;40.78;22.22;;;;;;;0.40;86.99;100170.36;1744822;81;20988;-57
2022/11/30 05:30:42;;;;;;;42.58;23.22;;;;;;;0.32;86.98;100167.73;1744731;81;21516;-49
2022/11/30 05:33:08;;;;;;;50.63;25.17;;;;;;;0.36;86.92;100168.20;1744885;82;21027;-44
2022/11/30 05:35:34;;;;;;;43.10;23.27;;;;;;;0.36;87.03;100174.66;1744719;81;21035;-51
2022/11/30 05:38:00;;;;;;;47.17;24.15;;;;;;;0.29;86.91;100170.34;1744706;82;20987;-55
2022/11/30 05:40:27;;;;;;;41.33;24.05;;;;;;;0.25;86.99;100168.59;1744711;81;20956;-52
2022/11/30 05:42:58;;;;;;;46.05;23.02;;;;;;;0.35;87.04;100176.81;1744734;81;21484;-58
2022/11/30 05:45:24;;;;;;;40.33;22.85;;;;;;;0.29;87.13;100184.58;1744659;81;20960;-44
2022/11/30 05:47:50;;;;;;;43.28;23.12;;;;;;;0.30;86.92;100184.14;1744690;81;20995;-49
2022/11/30 05:50:17;;;;;;;41.90;23.45;;;;;;;0.31;87.05;100185.84;1744708;82;20984;-49
2022/11/30 05:52:42;;;;;;;38.23;21.63;;;;;;;0.33;87.07;100181.12;1744923;82;20968;-49
2022/11/30 05:55:08;;;;;;;42.78;22.77;;;;;;;0.40;87.02;100181.11;1744748;81;21030;-59
2022/11/30 05:57:39;;;;;;;39.03;21.68;;;;;;;0.40;86.84;100187.17;1744838;82;21055;-48
2022/11/30 06:00:08;;;;;;;46.90;23.40;;;;;;;0.45;86.76;100193.63;1744690;81;21000;-43
2022/11/30 06:02:33;;;;;;;45.20;23.42;;;;;;;0.41;86.68;100190.61;1744697;82;21019;-44
2022/11/30 06:05:00;;;;;;;40.65;22.77;;;;;;;0.38;86.40;100197.52;1744753;82;21485;-59
2022/11/30 06:07:25;;;;;;;44.63;22.50;;;;;;;0.41;86.25;100200.52;1744691;82;21493;-51
2022/11/30 06:09:51;;;;;;;42.35;23.45;;;;;;;0.44;86.27;100197.95;1744707;81;21000;-51
2022/11/30 06:12:17;;;;;;;41.08;22.27;;;;;;;0.46;86.01;100207.02;1744664;81;20988;-40
2022/11/30 06:14:43;;;;;;;44.30;23.32;;;;;;;0.37;86.02;100195.78;1744764;81;21019;-58
2022/11/30 06:17:08;;;;;;;39.23;22.35;;;;;;;0.42;86.11;100202.67;1744755;81;21035;-53
2022/11/30 06:19:34;;;;;;;35.92;22.17;;;;;;;0.41;85.99;100202.26;1744706;81;21103;-48
2022/11/30 06:22:00;;;;;;;37.75;22.37;;;;;;;0.44;85.97;100204.83;1744856;82;20968;-45
2022/11/30 06:24:25;;;;;;;36.40;21.52;;;;;;;0.47;85.81;100198.37;1744684;81;21016;-50
2022/11/30 06:26:51;;;;;;;41.63;23.12;;;;;;;0.48;85.71;100198.81;1744678;81;21031;-60
2022/11/30 06:29:17;;;;;;;32.93;19.92;;;;;;;0.42;85.60;100202.67;1744635;81;20980;-50
2022/11/30 06:31:43;;;;;;;37.35;20.45;;;;;;;0.37;85.55;100206.13;1744702;81;21023;-54
2022/11/30 06:34:08;;;;;;;37.95;22.50;;;;;;;0.42;85.52;100215.20;1744664;82;20960;-49
2022/11/30 06:36:34;;;;;;;36.03;19.70;;;;;;;0.40;85.70;100223.80;1744659;82;20968;-56
2022/11/30 06:39:00;;;;;;;37.03;20.97;;;;;;;0.28;85.71;100225.97;1744825;81;20996;-52
2022/11/30 06:41:26;;;;;;;35.23;22.27;;;;;;;0.38;85.88;100224.69;1744772;81;20996;-53
2022/11/30 06:43:52;;;;;;;39.95;22.45;;;;;;;0.42;85.90;100229.84;1744632;81;21008;-50
2022/11/30 06:46:18;;;;;;;42.15;23.38;;;;;;;0.46;85.64;100231.59;1744773;81;21480;-57
2022/11/30 06:48:48;;;;;;;46.18;24.77;;;;;;;0.51;85.42;100229.85;1744628;82;20975;-42
2022/11/30 06:51:14;;;;;;;46.40;23.92;;;;;;;0.54;85.54;100233.30;1744685;81;21018;-56
2022/11/30 06:53:43;;;;;;;53.13;24.40;;;;;;;0.57;85.36;100226.84;1744668;81;20992;-48
2022/11/30 06:56:09;;;;;;;40.17;23.10;;;;;;;0.55;84.97;100226.42;1744616;81;20991;-59
2022/11/30 06:58:36;;;;;;;44.20;24.20;;;;;;;0.62;85.37;100229.86;1744904;81;20990;-51
2022/11/30 07:01:08;;;;;;;40.20;23.57;;;;;;;0.63;85.02;100235.04;1744958;81;20995;-54
2022/11/30 07:03:34;;;;;;;38.75;22.35;;;;;;;0.66;85.16;100233.76;1744802;81;20999;-56
2022/11/30 07:06:08;;;;;;;39.03;21.73;;;;;;;0.65;85.02;100237.20;1744443;81;21039;-49
2022/11/30 07:08:34;;;;;;;38.80;21.25;;;;;;;0.64;84.81;100239.37;1744580;82;21000;-50
2022/11/30 07:10:59;;;;;;;36.55;20.27;;;;;;;0.62;84.68;100241.50;1744845;81;21066;-41
2022/11/30 07:13:25;;;;;;;41.35;21.62;;;;;;;0.54;84.92;100245.39;1744663;81;20996;-56
2022/11/30 07:15:51;;;;;;;37.98;21.93;;;;;;;0.59;84.88;100244.97;1744646;81;20999;-46
2022/11/30 07:18:17;;;;;;;39.25;21.65;;;;;;;0.66;85.14;100245.41;1744637;81;20967;-57
2022/11/30 07:20:42;;;;;;;42.60;22.87;;;;;;;0.70;85.17;100244.98;1744641;81;20992;-48
2022/11/30 07:26:05;;;;;;;46.58;23.57;;;;;;;0.75;84.79;100253.17;1744578;82;21469;-48
2022/11/30 07:28:37;;;;;;;38.35;21.05;;;;;;;0.69;84.39;100258.36;1744300;81;20992;-47
2022/11/30 07:31:22;;;;;;;33.25;20.97;;;;;;;0.73;84.49;100252.75;1744629;82;21048;-54
2022/11/30 07:33:49;;;;;;;35.40;20.60;;;;;;;0.70;84.48;100249.72;1711196;83;21033;-44
2022/11/30 07:36:17;;;;;;;37.95;22.13;;;;;;;0.75;84.61;100249.73;1744760;82;21004;-50
2022/11/30 07:38:43;;;;;;;34.05;20.27;;;;;;;0.82;84.63;100254.45;1744617;82;21007;-44
2022/11/30 07:41:09;;;;;;;50.73;30.35;;;;;;;0.72;84.54;100261.37;1711334;84;20974;-41
2022/11/30 07:43:35;;;;;;;66.55;33.02;;;;;;;0.72;84.45;100257.48;1750092;82;21028;-56
2022/11/30 07:46:02;;;;;;;37.17;23.67;;;;;;;0.71;84.32;100257.04;1754958;82;20998;-47
2022/11/30 07:48:29;;;;;;;48.83;23.20;;;;;;;0.67;84.16;100257.47;1719124;83;21513;-51
2022/11/30 07:51:04;;;;;;;40.70;22.85;;;;;;;0.67;84.56;100257.47;1755023;81;21037;-54
2022/11/30 07:53:30;;;;;;;34.98;21.62;;;;;;;0.63;84.56;100252.30;1723510;83;20979;-54
2022/11/30 07:56:08;;;;;;;40.20;23.38;;;;;;;0.53;84.47;100257.48;1754960;82;21030;-44
2022/11/30 07:58:34;;;;;;;40.00;22.73;;;;;;;0.59;84.66;100254.47;1718869;83;20954;-47
2022/11/30 08:01:03;;;;;;;37.33;22.37;;;;;;;0.58;84.88;100256.17;1754952;82;21495;-47
2022/11/30 08:03:29;;;;;;;37.03;22.73;;;;;;;0.61;85.13;100254.03;1754967;81;21003;-49
2022/11/30 08:06:01;;;;;;;33.95;20.77;;;;;;;0.62;85.21;100252.75;1755082;81;20995;-43
2022/11/30 08:08:35;;;;;;;42.23;22.65;;;;;;;0.61;85.27;100252.30;1755114;82;20987;-48
2022/11/30 08:11:01;;;;;;;42.25;22.40;;;;;;;0.62;84.95;100247.57;1754981;81;21038;-38
2022/11/30 08:13:27;;;;;;;38.00;23.30;;;;;;;0.69;85.12;100254.48;1755193;81;20990;-54
2022/11/30 08:15:53;;;;;;;36.53;21.25;;;;;;;0.78;85.06;100248.86;1754954;80;20990;-48
2022/11/30 08:18:19;;;;;;;32.55;20.85;;;;;;;0.84;84.78;100252.76;1755101;82;21503;-46
2022/11/30 08:20:45;;;;;;;32.20;19.45;;;;;;;0.84;84.47;100254.05;1755067;81;21487;-52
2022/11/30 08:23:11;;;;;;;38.23;21.23;;;;;;;0.75;84.23;100255.77;1754998;82;20991;-50
2022/11/30 08:25:37;;;;;;;38.53;21.17;;;;;;;0.80;84.61;100253.59;1755000;81;21468;-48
2022/11/30 08:28:04;;;;;;;39.13;21.60;;;;;;;0.88;84.39;100263.54;1754943;81;21050;-51
2022/11/30 08:30:30;;;;;;;35.38;21.55;;;;;;;0.95;84.48;100257.05;1754178;81;21029;-49
2022/11/30 08:32:56;;;;;;;33.50;19.75;;;;;;;0.89;84.03;100260.06;1754963;82;21445;-46
2022/11/30 08:35:22;;;;;;;30.80;19.15;;;;;;;0.92;83.89;100266.55;1754967;81;21019;-52
2022/11/30 08:37:48;;;;;;;31.20;18.70;;;;;;;0.88;83.43;100258.36;1755127;82;20987;-52
2022/11/30 08:40:14;;;;;;;30.43;19.48;;;;;;;0.86;83.36;100256.20;1755123;81;21448;-55
2022/11/30 08:42:39;;;;;;;35.68;20.57;;;;;;;0.61;83.55;100253.59;1754080;81;20987;-41
2022/11/30 08:45:06;;;;;;;30.35;20.17;;;;;;;0.77;84.07;100260.95;1744781;82;21007;-56
2022/11/30 08:47:32;;;;;;;60.65;31.33;;;;;;;0.82;84.04;100261.81;1744747;82;21489;-49
2022/11/30 08:49:59;;;;;;;37.38;23.65;;;;;;;0.74;83.84;100256.61;1744648;82;20987;-43
2022/11/30 08:52:26;;;;;;;43.65;24.40;;;;;;;0.80;84.14;100253.59;1744752;82;20960;-45
2022/11/30 08:54:52;;;;;;;43.83;24.40;;;;;;;0.88;84.27;100255.77;1744831;82;20991;-41
2022/11/30 08:57:20;;;;;;;41.95;24.23;;;;;;;0.93;84.06;100251.45;1744641;81;21047;-39
2022/11/30 08:59:48;;;;;;;45.70;25.92;;;;;;;1.03;84.09;100249.71;1744609;82;20988;-51
2022/11/30 09:02:17;;;;;;;43.00;24.05;;;;;;;1.05;83.47;100255.30;1744674;81;21365;-47
2022/11/30 09:04:43;;;;;;;40.12;22.65;;;;;;;1.04;83.36;100251.45;1744744;82;20968;-51
2022/11/30 09:07:08;;;;;;;41.88;24.05;;;;;;;1.02;83.26;100245.38;1744632;82;21031;-53
2022/11/30 09:09:35;;;;;;;41.63;22.77;;;;;;;1.00;82.90;100249.70;1744870;81;21465;-61
2022/11/30 09:12:01;;;;;;;41.35;23.85;;;;;;;1.09;83.18;100250.58;1744937;82;20975;-42
2022/11/30 09:14:28;;;;;;;38.10;21.95;;;;;;;1.11;82.98;100256.61;1744636;82;21497;-48
2022/11/30 09:16:54;;;;;;;36.00;22.95;;;;;;;1.11;82.84;100255.31;1744650;81;20987;-52
2022/11/30 09:19:20;;;;;;;35.50;21.45;;;;;;;1.13;82.54;100256.62;1744670;81;21019;-52
2022/11/30 09:21:46;;;;;;;38.75;21.97;;;;;;;1.18;82.54;100259.19;1744690;82;20972;-58
2022/11/30 09:24:12;;;;;;;35.60;23.25;;;;;;;1.23;82.77;100262.20;1744542;82;20999;-45
2022/11/30 09:26:38;;;;;;;42.98;22.98;;;;;;;1.21;82.24;100256.59;1744658;81;21019;-50
2022/11/30 09:29:04;;;;;;;46.10;24.02;;;;;;;1.29;82.62;100259.61;1743820;80;21090;-45
2022/11/30 09:31:30;;;;;;;44.45;25.00;;;;;;;1.37;82.46;100262.62;1744556;82;21038;-50
2022/11/30 09:33:57;;;;;;;46.25;25.55;;;;;;;1.45;82.54;100257.83;1744572;82;20983;-51
2022/11/30 09:36:29;;;;;;;;;;;;;;;1.48;82.34;100264.31;1747257;81;20956;-52
2022/11/30 09:38:53;;;;;;;44.77;24.85;;;;;;;1.47;81.73;100267.75;1742801;81;20146;-49
2022/11/30 09:42:07;;;;;;;44.83;25.15;;;;;;;1.46;81.57;100271.23;1744754;82;20956;-46
2022/11/30 09:44:59;;;;;;;47.48;24.50;;;;;;;1.40;81.39;100266.48;1755273;81;21427;-56
2022/11/30 09:47:48;;;;;;;43.10;23.67;;;;;;;1.37;81.14;100263.48;1760333;81;20999;-50
2022/11/30 09:50:19;;;;;;;45.83;26.45;;;;;;;1.41;81.32;100270.81;1760487;80;21062;-53
2022/11/30 09:52:59;;;;;;;58.23;33.35;;;;;;;1.44;81.24;100272.11;1760476;81;20979;-56
2022/11/30 09:55:30;;;;;;;39.65;23.80;;;;;;;1.39;81.00;100266.92;1760571;81;20972;-50
2022/11/30 09:58:00;;;;;;;41.35;23.20;;;;;;;1.42;81.27;100268.63;1759893;81;20959;-48
2022/11/30 10:00:26;;;;;;;37.20;23.83;;;;;;;1.38;81.13;100266.48;1760574;81;21002;-51
2022/11/30 10:02:56;;;;;;;43.70;26.77;;;;;;;1.45;81.41;100268.63;1760552;81;20967;-51
2022/11/30 10:05:44;;;;;;;40.60;23.52;;;;;;;1.43;81.16;100266.48;1760610;81;21453;-48
2022/11/30 10:08:39;;;;;;;40.67;24.98;;;;;;;1.48;81.02;100269.49;1760353;81;21038;-44
2022/11/30 10:11:41;;;;;;;36.00;23.10;;;;;;;1.51;80.82;100272.50;1760613;81;21010;-56
2022/11/30 10:14:59;;;;;;;33.65;21.05;;;;;;;1.52;80.84;100274.23;1758067;80;20978;-49
2022/11/30 10:17:34;;;;;;;39.48;21.48;;;;;;;1.50;80.97;100276.83;1773844;80;21033;-50
2022/11/30 10:20:11;;;;;;;36.68;21.68;;;;;;;1.46;80.90;100273.82;1813500;79;20972;-45
2022/11/30 10:23:10;;;;;;;38.28;19.65;;;;;;;1.43;80.94;100275.55;1813271;78;21472;-55
2022/11/30 10:25:52;;;;;;;33.10;18.87;;;;;;;1.38;80.45;100275.55;1744574;80;21548;-47
2022/11/30 10:28:50;;;;;;;29.57;19.00;;;;;;;1.39;80.70;100272.11;1723376;83;20949;-51
2022/11/30 10:31:28;;;;;;;32.80;18.35;;;;;;;1.20;80.99;100273.00;1728131;81;21026;-48
2022/11/30 10:33:58;;;;;;;36.65;19.90;;;;;;;1.17;80.91;100266.55;1750294;80;21527;-47
2022/11/30 10:36:38;;;;;;;34.43;19.50;;;;;;;1.09;81.35;100265.23;1754122;80;20986;-51
2022/11/30 10:39:18;;;;;;;45.15;23.15;;;;;;;1.14;81.61;100263.50;1788884;80;21492;-55
2022/11/30 10:42:10;;;;;;;44.93;20.68;;;;;;;1.19;81.49;100267.40;1787776;80;20974;-52
2022/11/30 10:44:41;;;;;;;37.67;22.13;;;;;;;1.24;81.68;100273.45;1742299;81;21638;-43
2022/11/30 10:47:21;;;;;;;49.03;32.20;;;;;;;1.29;81.72;100276.87;1742084;81;21031;-45
2022/11/30 10:49:51;;;;;;;38.35;21.25;;;;;;;1.30;81.34;100272.13;1743972;81;21011;-46
2022/11/30 10:52:25;;;;;;;40.67;22.15;;;;;;;1.40;81.44;100281.63;1743407;81;21563;-47
2022/11/30 10:54:54;;;;;;;39.75;18.95;;;;;;;1.45;81.11;100273.81;1741871;81;21024;-52
2022/11/30 10:57:22;;;;;;;33.40;17.77;;;;;;;1.52;81.23;100276.39;1742162;81;21000;-51
2022/11/30 10:59:52;;;;;;;31.48;18.57;;;;;;;1.56;81.10;100271.20;1742336;81;21012;-45
2022/11/30 11:02:49;;;;;;;38.48;19.82;;;;;;;1.51;80.79;100268.20;1741851;81;21015;-46
2022/11/30 11:05:25;;;;;;;32.03;18.23;;;;;;;1.57;80.64;100267.31;1742201;82;21548;-58
2022/11/30 11:08:17;;;;;;;34.30;17.95;;;;;;;1.67;80.86;100264.25;1741873;81;20996;-45
2022/11/30 11:10:48;;;;;;;52.05;19.82;;;;;;;1.75;80.37;100269.40;1741463;82;21067;-45
2022/11/30 11:13:37;;;;;;;37.98;19.90;;;;;;;1.77;80.09;100268.55;1742048;81;21023;-51
2022/11/30 11:16:07;;;;;;;34.10;18.37;;;;;;;1.66;78.99;100274.20;1741864;81;21016;-39
2022/11/30 11:18:35;;;;;;;31.33;17.92;;;;;;;1.71;79.28;100262.06;1742395;82;20960;-50
2022/11/30 11:21:05;;;;;;;35.20;19.40;;;;;;;1.80;79.80;100262.06;1740926;81;21567;-51
2022/11/30 11:23:39;;;;;;;35.63;21.20;;;;;;;1.74;79.65;100263.36;1737854;82;21051;-43
2022/11/30 11:26:09;;;;;;;46.42;26.33;;;;;;;1.77;79.74;100263.36;1737602;81;21477;-45
2022/11/30 11:28:38;;;;;;;40.00;22.07;;;;;;;1.62;78.46;100262.98;1736251;82;21000;-44
2022/11/30 11:31:36;;;;;;;36.42;19.30;;;;;;;1.66;78.55;100266.43;1736962;82;20988;-48